Weather at Alexandria Airport

Public forecast

Using degrees Celsius for public forecast. Weather courtesy of forecast.io.

Closest aviation weather report (METAR) to Alexandria Airport

Closest report is Thessaloniki Macedonia International Airport, 23.4 nm (43.3 km) ESE. Retrieved 2022/01/17 15:50 UTC (28 minutes ago):

LGTS 171550Z 33013G23KT CAVOK 10/00 Q1019 NOSIG

Closest aviation forecast (TAF) to Alexandria Airport

Closest forecast is Thessaloniki Macedonia International Airport, 23.4 nm (43.3 km) ESE. Retrieved 2022/01/17 12:12 UTC (4 hours ago):

TAF LGTS 171100Z 1712/1812 34012KT 9999 FEW030 TEMPO 1714/1812 34015G30KT PROB40 TEMPO 1802/1810 34025G35KT